createdAt,value
2023-04-09T00:00:12.564Z,100036.16
2023-04-09T00:02:39.236Z,100050.25
2023-04-09T00:05:07.390Z,100035.38
2023-04-09T00:07:34.158Z,100037.00
2023-04-09T00:10:00.912Z,100037.88
2023-04-09T00:12:27.416Z,100039.34
2023-04-09T00:14:53.994Z,100044.44
2023-04-09T00:17:20.655Z,100014.78
2023-04-09T00:19:47.205Z,100037.81
2023-04-09T00:22:13.718Z,100016.09
2023-04-09T00:24:40.663Z,100043.50
2023-04-09T00:27:07.261Z,100039.19
2023-04-09T00:29:33.779Z,100041.16
2023-04-09T00:32:00.338Z,100050.69
2023-04-09T00:34:27.069Z,100036.06
2023-04-09T00:36:53.618Z,100047.91
2023-04-09T00:39:20.387Z,100056.97
2023-04-09T00:41:46.886Z,100043.50
2023-04-09T00:44:13.379Z,100045.91
2023-04-09T00:46:39.887Z,100046.69
2023-04-09T00:49:06.590Z,100037.19
2023-04-09T00:51:33.528Z,100031.31
2023-04-09T00:54:00.092Z,100038.03
2023-04-09T00:56:27.216Z,100035.34
2023-04-09T00:58:54.188Z,100029.66
2023-04-09T01:01:20.907Z,100037.06
2023-04-09T01:03:47.691Z,100041.56
2023-04-09T01:06:38.668Z,100026.91
2023-04-09T01:09:11.616Z,100044.34
2023-04-09T01:11:42.078Z,100026.50
2023-04-09T01:14:31.450Z,100050.69
2023-04-09T01:17:04.407Z,100051.91
2023-04-09T01:19:44.691Z,100049.50
2023-04-09T01:22:38.245Z,100056.16
2023-04-09T01:25:17.239Z,100057.38
2023-04-09T01:28:06.691Z,100054.53
2023-04-09T01:30:33.483Z,100055.72
2023-04-09T01:33:00.215Z,100050.19
2023-04-09T01:35:28.604Z,100052.19
2023-04-09T01:37:56.091Z,100052.94
2023-04-09T01:40:22.737Z,100041.22
2023-04-09T01:42:49.693Z,100050.19
2023-04-09T01:45:16.447Z,100050.97
2023-04-09T01:47:43.142Z,100053.31
2023-04-09T01:50:10.414Z,100037.66
2023-04-09T01:52:37.021Z,100060.59
2023-04-09T01:55:03.700Z,100052.38
2023-04-09T01:57:30.944Z,100058.63
2023-04-09T01:59:57.439Z,100056.28
2023-04-09T02:02:57.782Z,100058.63
2023-04-09T02:05:27.131Z,100060.16
2023-04-09T02:07:56.510Z,100060.94
2023-04-09T02:10:24.740Z,100062.50
2023-04-09T02:12:51.890Z,100055.50
2023-04-09T02:15:19.867Z,100049.88
2023-04-09T02:17:46.480Z,100064.16
2023-04-09T02:20:18.449Z,100064.59
2023-04-09T02:22:48.485Z,100053.31
2023-04-09T02:25:15.565Z,100052.31
2023-04-09T02:27:42.003Z,100057.25
2023-04-09T02:30:08.779Z,100038.97
2023-04-09T02:32:35.318Z,100058.53
2023-04-09T02:35:02.005Z,100042.09
2023-04-09T02:37:28.709Z,100047.63
2023-04-09T02:39:55.186Z,100046.09
2023-04-09T02:42:21.816Z,100054.03
2023-04-09T02:44:48.321Z,100056.44
2023-04-09T02:47:16.011Z,100060.41
2023-04-09T02:49:42.540Z,100057.28
2023-04-09T02:52:10.817Z,100054.19
2023-04-09T02:54:37.348Z,100050.97
2023-04-09T02:57:03.887Z,100061.59
2023-04-09T02:59:30.381Z,100052.63
2023-04-09T03:01:56.958Z,100052.28
2023-04-09T03:04:23.568Z,100042.41
2023-04-09T03:06:51.618Z,100036.97
2023-04-09T03:09:18.117Z,100040.13
2023-04-09T03:11:44.588Z,100023.16
2023-04-09T03:14:11.160Z,100015.88
2023-04-09T03:16:37.642Z,100013.09
2023-04-09T03:19:04.085Z,100026.41
2023-04-09T03:21:30.558Z,100025.75
2023-04-09T03:23:57.169Z,100018.72
2023-04-09T03:26:23.615Z,100024.25
2023-04-09T03:28:50.409Z,100023.81
2023-04-09T03:31:17.218Z,100022.25
2023-04-09T03:33:43.775Z,100017.94
2023-04-09T03:36:10.354Z,100012.84
2023-04-09T03:38:36.851Z,100020.34
2023-04-09T03:41:03.401Z,100007.09
2023-04-09T03:43:29.920Z,100022.75
2023-04-09T03:45:56.333Z,100028.28
2023-04-09T03:48:22.908Z,100022.75
2023-04-09T03:50:49.402Z,100028.63
2023-04-09T03:53:15.949Z,100031.75
2023-04-09T03:55:42.433Z,100026.59
2023-04-09T03:58:08.947Z,100010.22
2023-04-09T04:00:35.389Z,100030.91
2023-04-09T04:03:02.111Z,100034.47
2023-04-09T04:05:28.690Z,100029.69
2023-04-09T04:07:55.135Z,100028.13
2023-04-09T04:10:21.670Z,100025.03
2023-04-09T04:12:48.209Z,100023.81
2023-04-09T04:15:14.869Z,100030.53
2023-04-09T04:17:41.475Z,100029.00
2023-04-09T04:20:08.579Z,100029.78
2023-04-09T04:22:35.706Z,100015.59
2023-04-09T04:25:03.454Z,100031.84
2023-04-09T04:27:29.964Z,100013.56
2023-04-09T04:29:58.746Z,100039.81
2023-04-09T04:32:25.343Z,100045.84
2023-04-09T04:34:51.892Z,100045.59
2023-04-09T04:37:18.418Z,100043.66
2023-04-09T04:39:44.863Z,100052.72
2023-04-09T04:42:11.290Z,100050.75
2023-04-09T04:44:37.749Z,100031.59
2023-04-09T04:47:04.187Z,100044.78
2023-04-09T04:49:31.681Z,100046.78
2023-04-09T04:51:58.191Z,100048.25
2023-04-09T04:54:24.735Z,100040.06
2023-04-09T04:56:51.216Z,100046.69
2023-04-09T04:59:17.823Z,100022.47
2023-04-09T05:01:44.385Z,100043.22
2023-04-09T05:04:10.926Z,100040.56
2023-04-09T05:06:37.421Z,100046.56
2023-04-09T05:09:03.992Z,100048.59
2023-04-09T05:11:30.504Z,100051.06
2023-04-09T05:13:57.012Z,100048.75
2023-04-09T05:16:23.795Z,100021.91
2023-04-09T05:18:50.904Z,100052.81
2023-04-09T05:21:17.609Z,100047.81
2023-04-09T05:23:44.047Z,100056.78
2023-04-09T05:26:10.847Z,100056.09
2023-04-09T05:28:37.956Z,100027.41
2023-04-09T05:31:04.545Z,100060.56
2023-04-09T05:33:35.347Z,100069.75
2023-04-09T05:36:01.854Z,100061.84
2023-04-09T05:38:28.298Z,100066.50
2023-04-09T05:40:54.733Z,100075.56
2023-04-09T05:43:21.907Z,100073.09
2023-04-09T05:45:48.350Z,100071.91
2023-04-09T05:48:14.937Z,100071.91
2023-04-09T05:50:53.890Z,100057.06
2023-04-09T05:53:22.346Z,100071.81
2023-04-09T05:55:51.851Z,100066.03
2023-04-09T05:58:21.804Z,100072.91
2023-04-09T06:00:48.291Z,100071.00
2023-04-09T06:03:14.992Z,100064.44
2023-04-09T06:05:41.607Z,100063.25
2023-04-09T06:08:08.142Z,100063.03
2023-04-09T06:10:34.660Z,100084.81
2023-04-09T06:13:01.276Z,100084.38
2023-04-09T06:15:28.117Z,100082.38
2023-04-09T06:17:55.606Z,100071.41
2023-04-09T06:20:23.018Z,100092.16
2023-04-09T06:22:49.535Z,100092.38
2023-04-09T06:25:16.232Z,100070.47
2023-04-09T06:27:42.860Z,100082.41
2023-04-09T06:30:10.053Z,100101.09
2023-04-09T06:32:46.952Z,100096.38
2023-04-09T06:35:17.894Z,100102.75
2023-04-09T06:37:44.290Z,100053.16
2023-04-09T06:40:11.677Z,100098.22
2023-04-09T06:42:38.256Z,100111.69
2023-04-09T06:45:08.791Z,100108.22
2023-04-09T06:47:36.257Z,100101.19
2023-04-09T06:50:03.277Z,100116.44
2023-04-09T06:52:29.844Z,100107.22
2023-04-09T06:54:56.399Z,100104.59
2023-04-09T06:57:22.998Z,100108.34
2023-04-09T06:59:49.541Z,100106.81
2023-04-09T07:02:16.228Z,100100.84
2023-04-09T07:04:42.895Z,100097.50
2023-04-09T07:07:09.520Z,100103.03
2023-04-09T07:09:36.468Z,100091.09
2023-04-09T07:12:03.046Z,100086.09
2023-04-09T07:14:29.506Z,100082.97
2023-04-09T07:17:03.343Z,100100.41
2023-04-09T07:19:30.897Z,100099.22
2023-04-09T07:22:01.391Z,100097.00
2023-04-09T07:24:28.195Z,100075.06
2023-04-09T07:26:55.168Z,100094.66
2023-04-09T07:29:22.369Z,100085.75
2023-04-09T07:31:48.982Z,100087.72
2023-04-09T07:34:15.522Z,100092.16
2023-04-09T07:36:43.086Z,100091.31
2023-04-09T07:39:09.595Z,100090.41
2023-04-09T07:41:36.787Z,100094.81
2023-04-09T07:44:03.671Z,100094.09
2023-04-09T07:46:30.232Z,100098.69
2023-04-09T07:48:56.686Z,100096.69
2023-04-09T07:51:23.383Z,100090.44
2023-04-09T07:53:49.940Z,100099.72
2023-04-09T07:56:16.455Z,100088.09
2023-04-09T07:58:43.223Z,100101.84
2023-04-09T08:01:09.740Z,100091.13
2023-04-09T08:03:36.725Z,100093.28
2023-04-09T08:06:03.759Z,100090.53
2023-04-09T08:08:30.965Z,100092.53
2023-04-09T08:10:58.065Z,100076.22
2023-04-09T08:13:27.425Z,100106.78
2023-04-09T08:15:54.055Z,100099.13
2023-04-09T08:18:20.554Z,100110.50
2023-04-09T08:20:47.022Z,100099.13
2023-04-09T08:23:13.730Z,100099.09
2023-04-09T08:25:40.357Z,100104.31
2023-04-09T08:28:06.837Z,100108.66
2023-04-09T08:30:34.283Z,100101.94
2023-04-09T08:33:01.872Z,100100.97
2023-04-09T08:35:30.704Z,100102.03
2023-04-09T08:37:57.614Z,100091.34
2023-04-09T08:40:24.274Z,100095.84
2023-04-09T08:42:56.816Z,100071.19
2023-04-09T08:45:24.103Z,100094.28
2023-04-09T08:47:51.610Z,100094.28
2023-04-09T08:50:18.297Z,100093.38
2023-04-09T08:52:47.981Z,100078.50
2023-04-09T08:55:14.589Z,100075.53
2023-04-09T08:57:41.989Z,100096.63
2023-04-09T09:00:09.323Z,100094.31
2023-04-09T09:02:36.321Z,100075.09
2023-04-09T09:05:03.012Z,100088.69
2023-04-09T09:07:30.294Z,100088.03
2023-04-09T09:10:02.503Z,100082.72
2023-04-09T09:12:40.262Z,100094.47
2023-04-09T09:15:28.245Z,100066.78
2023-04-09T09:17:59.681Z,100065.16
2023-04-09T09:20:27.253Z,100079.69
2023-04-09T09:22:55.840Z,100056.88
2023-04-09T09:25:26.596Z,100065.56
2023-04-09T09:27:54.134Z,100072.09
2023-04-09T09:30:25.925Z,100079.09
2023-04-09T09:33:11.541Z,100038.94
2023-04-09T09:35:54.657Z,100070.88
2023-04-09T09:38:21.387Z,100075.13
2023-04-09T09:40:49.611Z,100042.44
2023-04-09T09:43:16.313Z,100053.75
2023-04-09T09:45:44.241Z,100073.50
2023-04-09T09:48:11.852Z,100075.94
2023-04-09T09:50:39.642Z,100078.00
2023-04-09T09:53:06.485Z,100060.31
2023-04-09T09:55:34.205Z,100081.34
2023-04-09T09:58:13.099Z,100083.69
2023-04-09T10:00:40.386Z,100075.78
2023-04-09T10:03:13.324Z,100076.13
2023-04-09T10:05:41.227Z,100056.25
2023-04-09T10:08:08.096Z,100065.88
2023-04-09T10:10:35.161Z,100032.22
2023-04-09T10:13:02.147Z,100076.31
2023-04-09T10:15:29.624Z,100065.25
2023-04-09T10:17:56.758Z,100053.59
2023-04-09T10:20:27.494Z,100069.00
2023-04-09T10:22:55.638Z,100063.84
2023-04-09T10:25:22.435Z,100054.53
2023-04-09T10:28:02.460Z,100055.16
2023-04-09T10:30:36.202Z,100056.13
2023-04-09T10:33:14.314Z,100061.47
2023-04-09T10:35:41.059Z,100050.28
2023-04-09T10:38:08.674Z,100055.00
2023-04-09T10:40:36.486Z,100040.34
2023-04-09T10:43:04.086Z,100047.56
2023-04-09T10:45:40.820Z,100050.44
2023-04-09T10:48:12.922Z,100052.19
2023-04-09T10:50:39.792Z,100049.09
2023-04-09T10:53:06.527Z,100046.03
2023-04-09T10:55:38.632Z,100041.38
2023-04-09T10:58:11.998Z,100049.47
2023-04-09T11:00:47.394Z,100049.78
2023-04-09T11:03:28.815Z,100038.63
2023-04-09T11:06:09.058Z,100038.09
2023-04-09T11:08:36.215Z,100035.44
2023-04-09T11:11:03.534Z,100040.69
2023-04-09T11:13:31.708Z,100042.00
2023-04-09T11:16:00.131Z,100033.50
2023-04-09T11:18:28.444Z,100033.97
2023-04-09T11:20:59.533Z,100029.63
2023-04-09T11:23:26.211Z,100018.13
2023-04-09T11:25:53.385Z,100019.06
2023-04-09T11:28:20.587Z,100002.22
2023-04-09T11:30:47.158Z,100014.53
2023-04-09T11:33:14.032Z,100001.56
2023-04-09T11:35:40.757Z,99996.78
2023-04-09T11:38:08.985Z,100016.53
2023-04-09T11:40:35.984Z,100005.00
2023-04-09T11:43:03.170Z,100001.69
2023-04-09T11:45:31.133Z,100011.78
2023-04-09T11:47:58.149Z,100008.19
2023-04-09T11:50:25.237Z,100005.88
2023-04-09T11:52:52.479Z,99998.16
2023-04-09T11:55:26.678Z,100000.38
2023-04-09T11:58:00.874Z,99987.84
2023-04-09T12:00:28.920Z,99991.44
2023-04-09T12:03:03.519Z,99979.19
2023-04-09T12:05:32.891Z,100004.13
2023-04-09T12:08:07.381Z,100012.31
2023-04-09T12:10:38.259Z,100007.88
2023-04-09T12:13:13.835Z,99988.34
2023-04-09T12:15:43.312Z,100009.41
2023-04-09T12:18:11.339Z,99987.41
2023-04-09T12:20:40.027Z,100010.22
2023-04-09T12:23:07.548Z,100005.66
2023-04-09T12:25:38.902Z,100005.66
2023-04-09T12:28:06.962Z,99984.84
2023-04-09T12:30:33.876Z,100007.63
2023-04-09T12:33:00.517Z,99984.06
2023-04-09T12:35:27.174Z,99973.72
2023-04-09T12:37:53.869Z,99984.53
2023-04-09T12:40:21.171Z,99984.84
2023-04-09T12:42:48.228Z,99984.53
2023-04-09T12:45:16.808Z,99976.78
2023-04-09T12:47:43.840Z,99981.69
2023-04-09T12:50:11.593Z,99979.22
2023-04-09T12:52:38.421Z,99970.75
2023-04-09T12:55:06.234Z,99983.53
2023-04-09T12:57:33.051Z,99963.53
2023-04-09T12:59:59.913Z,99967.91
2023-04-09T13:02:26.902Z,99968.44
2023-04-09T13:04:53.598Z,99956.41
2023-04-09T13:07:21.426Z,99960.56
2023-04-09T13:09:50.430Z,99965.09
2023-04-09T13:12:17.328Z,99936.84
2023-04-09T13:14:46.489Z,99947.09
2023-04-09T13:17:13.401Z,99957.38
2023-04-09T13:19:42.076Z,99934.09
2023-04-09T13:22:09.440Z,99931.75
2023-04-09T13:24:36.363Z,99950.41
2023-04-09T13:27:06.979Z,99942.97
2023-04-09T13:29:33.449Z,99953.00
2023-04-09T13:32:02.681Z,99938.59
2023-04-09T13:34:29.151Z,99936.59
2023-04-09T13:36:55.707Z,99947.03
2023-04-09T13:39:22.464Z,99946.63
2023-04-09T13:41:48.980Z,99925.16
2023-04-09T13:44:15.768Z,99937.75
2023-04-09T13:46:42.342Z,99926.22
2023-04-09T13:49:08.932Z,99912.94
2023-04-09T13:51:35.481Z,99922.00
2023-04-09T13:54:03.806Z,99925.50
2023-04-09T13:56:32.156Z,99927.13
2023-04-09T13:58:58.734Z,99907.69
2023-04-09T14:01:27.415Z,99915.31
2023-04-09T14:03:54.236Z,99908.44
2023-04-09T14:06:21.046Z,99896.03
2023-04-09T14:08:47.573Z,99909.09
2023-04-09T14:11:15.776Z,99899.16
2023-04-09T14:13:42.291Z,99898.38
2023-04-09T14:16:09.335Z,99886.41
2023-04-09T14:18:36.458Z,99895.25
2023-04-09T14:21:03.029Z,99895.44
2023-04-09T14:23:29.737Z,99873.34
2023-04-09T14:25:56.387Z,99890.25
2023-04-09T14:28:22.817Z,99887.94
2023-04-09T14:30:49.351Z,99883.66
2023-04-09T14:33:15.809Z,99878.94
2023-04-09T14:35:42.326Z,99879.44
2023-04-09T14:38:09.858Z,99880.28
2023-04-09T14:40:36.655Z,99869.34
2023-04-09T14:43:03.220Z,99875.47
2023-04-09T14:45:30.833Z,99868.69
2023-04-09T14:47:57.737Z,99878.25
2023-04-09T14:50:24.358Z,99863.97
2023-04-09T14:52:50.897Z,99852.88
2023-04-09T14:55:17.327Z,99845.25
2023-04-09T14:57:44.043Z,99855.41
2023-04-09T15:00:11.962Z,99854.56
2023-04-09T15:02:38.678Z,99853.03
2023-04-09T15:05:05.744Z,99874.59
2023-04-09T15:07:32.278Z,99872.59
2023-04-09T15:10:00.037Z,99848.69
2023-04-09T15:12:28.495Z,99874.31
2023-04-09T15:14:56.694Z,99865.78
2023-04-09T15:17:24.230Z,99866.63
2023-04-09T15:19:51.970Z,99843.34
2023-04-09T15:22:18.407Z,99872.84
2023-04-09T15:24:44.957Z,99863.25
2023-04-09T15:27:11.606Z,99842.22
2023-04-09T15:29:38.184Z,99839.69
2023-04-09T15:32:04.858Z,99870.47
2023-04-09T15:34:31.414Z,99848.84
2023-04-09T15:36:57.893Z,99858.56
2023-04-09T15:39:24.675Z,99863.66
2023-04-09T15:41:51.223Z,99872.94
2023-04-09T15:44:17.675Z,99870.00
2023-04-09T15:46:44.152Z,99844.31
2023-04-09T15:49:10.773Z,99847.69
2023-04-09T15:51:37.265Z,99867.53
2023-04-09T15:54:04.280Z,99865.41
2023-04-09T15:56:30.824Z,99859.19
2023-04-09T15:58:57.444Z,99860.09
2023-04-09T16:01:23.968Z,99869.31
2023-04-09T16:03:52.303Z,99862.25
2023-04-09T16:06:19.182Z,99860.69
2023-04-09T16:08:45.853Z,99850.16
2023-04-09T16:11:12.333Z,99866.97
2023-04-09T16:13:38.864Z,99848.19
2023-04-09T16:16:07.029Z,99857.78
2023-04-09T16:18:35.901Z,99871.50
2023-04-09T16:21:02.724Z,99878.81
2023-04-09T16:23:30.776Z,99877.31
2023-04-09T16:25:57.379Z,99853.03
2023-04-09T16:28:23.851Z,99866.44
2023-04-09T16:30:50.869Z,99872.53
2023-04-09T16:33:17.434Z,99878.75
2023-04-09T16:35:44.068Z,99879.13
2023-04-09T16:38:10.772Z,99865.38
2023-04-09T16:40:37.511Z,99846.34
2023-04-09T16:43:04.037Z,99866.06
2023-04-09T16:45:30.596Z,99869.81
2023-04-09T16:47:57.267Z,99860.75
2023-04-09T16:50:24.306Z,99865.69
2023-04-09T16:52:50.892Z,99856.88
2023-04-09T16:55:17.508Z,99876.69
2023-04-09T16:57:44.001Z,99877.81
2023-04-09T17:00:10.751Z,99865.78
2023-04-09T17:02:37.705Z,99874.16
2023-04-09T17:05:04.499Z,99870.81
2023-04-09T17:07:31.046Z,99873.38
2023-04-09T17:09:58.523Z,99846.28
2023-04-09T17:12:24.998Z,99875.44
2023-04-09T17:14:51.628Z,99884.09
2023-04-09T17:17:18.553Z,99871.06
2023-04-09T17:19:45.143Z,99872.53
2023-04-09T17:22:13.414Z,99879.28
2023-04-09T17:24:40.268Z,99879.09
2023-04-09T17:27:07.356Z,99880.44
2023-04-09T17:29:34.312Z,99872.78
2023-04-09T17:32:00.826Z,99881.34
2023-04-09T17:34:27.450Z,99881.91
2023-04-09T17:36:59.751Z,99888.06
2023-04-09T17:39:27.065Z,99888.88
2023-04-09T17:41:56.313Z,99893.47
2023-04-09T17:44:24.859Z,99887.16
2023-04-09T17:46:51.893Z,99881.59
2023-04-09T17:49:18.516Z,99882.13
2023-04-09T17:51:45.034Z,99872.25
2023-04-09T17:54:11.726Z,99871.59
2023-04-09T17:56:39.065Z,99876.56
2023-04-09T17:59:06.679Z,99877.69
2023-04-09T18:01:33.401Z,99876.38
2023-04-09T18:04:01.357Z,99886.91
2023-04-09T18:06:28.262Z,99884.31
2023-04-09T18:08:54.809Z,99879.53
2023-04-09T18:11:21.614Z,99888.38
2023-04-09T18:13:48.232Z,99882.34
2023-04-09T18:16:14.732Z,99888.25
2023-04-09T18:18:41.346Z,99898.91
2023-04-09T18:21:07.940Z,99899.41
2023-04-09T18:23:34.703Z,99898.13
2023-04-09T18:26:01.688Z,99910.38
2023-04-09T18:28:28.203Z,99909.59
2023-04-09T18:30:54.790Z,99898.44
2023-04-09T18:33:21.689Z,99914.22
2023-04-09T18:35:48.241Z,99917.59
2023-04-09T18:38:14.707Z,99901.19
2023-04-09T18:40:43.168Z,99909.84
2023-04-09T18:43:12.740Z,99909.34
2023-04-09T18:45:42.499Z,99907.78
2023-04-09T18:48:09.188Z,99922.75
2023-04-09T18:50:36.015Z,99936.03
2023-04-09T18:53:03.638Z,99930.19
2023-04-09T18:55:30.414Z,99920.66
2023-04-09T18:57:57.493Z,99938.75
2023-04-09T19:00:24.198Z,99935.94
2023-04-09T19:02:51.005Z,99933.88
2023-04-09T19:05:18.011Z,99943.28
2023-04-09T19:07:44.592Z,99943.84
2023-04-09T19:10:11.508Z,99941.66
2023-04-09T19:12:38.244Z,99937.88
2023-04-09T19:15:06.142Z,99937.56
2023-04-09T19:17:34.045Z,99929.38
2023-04-09T19:20:00.990Z,99942.16
2023-04-09T19:22:28.115Z,99938.09
2023-04-09T19:24:54.660Z,99942.22
2023-04-09T19:27:21.385Z,99924.97
2023-04-09T19:29:47.883Z,99944.44
2023-04-09T19:32:15.077Z,99951.47
2023-04-09T19:34:41.543Z,99939.75
2023-04-09T19:37:08.064Z,99961.66
2023-04-09T19:39:34.497Z,99961.22
2023-04-09T19:42:01.021Z,99949.69
2023-04-09T19:44:27.435Z,99959.38
2023-04-09T19:46:53.969Z,99950.81
2023-04-09T19:49:20.445Z,99951.06
2023-04-09T19:51:47.008Z,99959.94
2023-04-09T19:54:15.109Z,99958.63
2023-04-09T19:56:42.495Z,99960.41
2023-04-09T19:59:09.034Z,99956.63
2023-04-09T20:01:36.096Z,99954.41
2023-04-09T20:04:03.634Z,99956.66
2023-04-09T20:06:30.781Z,99956.31
2023-04-09T20:08:57.359Z,99945.56
2023-04-09T20:11:23.883Z,99953.88
2023-04-09T20:13:50.523Z,99951.97
2023-04-09T20:16:17.047Z,99947.44
2023-04-09T20:18:43.596Z,99956.53
2023-04-09T20:21:14.058Z,99957.31
2023-04-09T20:23:40.756Z,99954.53
2023-04-09T20:26:11.094Z,99945.22
2023-04-09T20:28:37.652Z,99951.31
2023-04-09T20:31:04.333Z,99938.19
2023-04-09T20:33:30.860Z,99955.06
2023-04-09T20:35:57.420Z,99950.75
2023-04-09T20:38:24.278Z,99953.59
2023-04-09T20:40:52.623Z,99950.47
2023-04-09T20:43:19.491Z,99956.22
2023-04-09T20:45:45.987Z,99947.69
2023-04-09T20:48:12.637Z,99949.22
2023-04-09T20:50:39.116Z,99952.00
2023-04-09T20:53:05.619Z,99948.28
2023-04-09T20:55:32.110Z,99932.09
2023-04-09T20:58:00.071Z,99939.63
2023-04-09T21:00:27.420Z,99927.81
2023-04-09T21:02:54.148Z,99934.91
2023-04-09T21:05:23.855Z,99946.63
2023-04-09T21:07:52.204Z,99945.59
2023-04-09T21:10:18.763Z,99940.22
2023-04-09T21:12:45.310Z,99944.75
2023-04-09T21:15:11.848Z,99940.63
2023-04-09T21:17:38.418Z,99933.28
2023-04-09T21:20:05.630Z,99928.44
2023-04-09T21:22:32.054Z,99941.84
2023-04-09T21:24:58.499Z,99940.38
2023-04-09T21:27:24.925Z,99935.72
2023-04-09T21:29:51.388Z,99925.41
2023-04-09T21:32:17.910Z,99920.66
2023-04-09T21:34:44.567Z,99925.59
2023-04-09T21:37:11.043Z,99905.00
2023-04-09T21:39:38.380Z,99924.00
2023-04-09T21:42:06.352Z,99929.69
2023-04-09T21:44:33.744Z,99912.31
2023-04-09T21:47:01.568Z,99930.72
2023-04-09T21:49:28.015Z,99917.22
2023-04-09T21:51:56.687Z,99932.09
2023-04-09T21:54:23.156Z,99924.66
2023-04-09T21:56:49.582Z,99927.91
2023-04-09T21:59:16.031Z,99918.41
2023-04-09T22:01:42.458Z,99927.91
2023-04-09T22:04:09.230Z,99931.81
2023-04-09T22:06:35.883Z,99924.69
2023-04-09T22:09:02.569Z,99925.47
2023-04-09T22:11:29.244Z,99925.81
2023-04-09T22:13:57.037Z,99928.59
2023-04-09T22:16:24.444Z,99932.03
2023-04-09T22:18:51.497Z,99928.25
2023-04-09T22:21:18.283Z,99915.81
2023-04-09T22:23:44.824Z,99930.03
2023-04-09T22:26:12.296Z,99935.69
2023-04-09T22:28:39.306Z,99904.50
2023-04-09T22:31:06.400Z,99927.03
2023-04-09T22:33:32.926Z,99932.56
2023-04-09T22:35:59.678Z,99932.25
2023-04-09T22:38:26.512Z,99932.19
2023-04-09T22:40:53.057Z,99945.06
2023-04-09T22:43:19.668Z,99946.38
2023-04-09T22:45:55.974Z,99945.75
2023-04-09T22:48:23.081Z,99953.06
2023-04-09T22:50:50.346Z,99952.78
2023-04-09T22:53:19.893Z,99943.22
2023-04-09T22:55:47.499Z,99952.72
2023-04-09T22:58:14.310Z,99956.81
2023-04-09T23:00:41.105Z,99957.75
2023-04-09T23:03:07.902Z,99949.28
2023-04-09T23:05:34.642Z,99939.97
2023-04-09T23:08:01.118Z,99944.06
2023-04-09T23:10:27.796Z,99929.38
2023-04-09T23:12:54.266Z,99931.63
2023-04-09T23:15:20.738Z,99943.47
2023-04-09T23:17:47.374Z,99951.50
2023-04-09T23:20:14.988Z,99946.03
2023-04-09T23:22:42.104Z,99935.94
2023-04-09T23:25:09.068Z,99933.31
2023-04-09T23:27:35.789Z,99922.53
2023-04-09T23:30:02.373Z,99932.72
2023-04-09T23:32:28.887Z,99932.94
2023-04-09T23:34:57.218Z,99946.31
2023-04-09T23:37:23.750Z,99944.50
2023-04-09T23:39:50.389Z,99932.19
2023-04-09T23:42:17.256Z,99942.38
2023-04-09T23:44:44.028Z,99926.56
2023-04-09T23:47:11.080Z,99926.78
2023-04-09T23:49:37.691Z,99912.63
2023-04-09T23:52:04.561Z,99929.22
2023-04-09T23:54:30.968Z,99928.97
2023-04-09T23:57:00.219Z,99929.75
2023-04-09T23:59:26.846Z,99928.34
